sensor_id;sensor_type;location;lat;lon;timestamp;temperature;humidity
41838;DHT22;27511;52.042;5.178;2023-05-24T00:02:06;14.00;99.90
41838;DHT22;27511;52.042;5.178;2023-05-24T00:04:32;13.90;99.90
41838;DHT22;27511;52.042;5.178;2023-05-24T00:06:57;14.00;99.90
41838;DHT22;27511;52.042;5.178;2023-05-24T00:09:23;14.00;99.90
41838;DHT22;27511;52.042;5.178;2023-05-24T00:11:48;13.90;99.90
41838;DHT22;27511;52.042;5.178;2023-05-24T00:14:14;14.00;99.90
41838;DHT22;27511;52.042;5.178;2023-05-24T00:16:40;14.00;99.90
41838;DHT22;27511;52.042;5.178;2023-05-24T00:19:05;13.90;99.90
41838;DHT22;27511;52.042;5.178;2023-05-24T00:21:31;13.80;99.90
41838;DHT22;27511;52.042;5.178;2023-05-24T00:23:59;13.70;99.90
41838;DHT22;27511;52.042;5.178;2023-05-24T00:26:24;13.60;99.90
41838;DHT22;27511;52.042;5.178;2023-05-24T00:28:50;13.60;99.90
41838;DHT22;27511;52.042;5.178;2023-05-24T00:31:15;13.50;99.90
41838;DHT22;27511;52.042;5.178;2023-05-24T00:33:41;13.40;99.90
41838;DHT22;27511;52.042;5.178;2023-05-24T00:36:06;13.40;99.90
41838;DHT22;27511;52.042;5.178;2023-05-24T00:38:32;13.40;99.90
41838;DHT22;27511;52.042;5.178;2023-05-24T00:40:57;13.40;99.90
41838;DHT22;27511;52.042;5.178;2023-05-24T00:43:25;13.60;99.90
41838;DHT22;27511;52.042;5.178;2023-05-24T00:48:33;13.40;99.90
41838;DHT22;27511;52.042;5.178;2023-05-24T00:50:59;13.40;99.90
41838;DHT22;27511;52.042;5.178;2023-05-24T00:53:24;13.40;99.90
41838;DHT22;27511;52.042;5.178;2023-05-24T00:55:50;13.30;99.90
41838;DHT22;27511;52.042;5.178;2023-05-24T00:58:15;13.20;99.90
41838;DHT22;27511;52.042;5.178;2023-05-24T01:00:41;13.30;99.90
41838;DHT22;27511;52.042;5.178;2023-05-24T01:03:07;13.20;99.90
41838;DHT22;27511;52.042;5.178;2023-05-24T01:05:34;13.20;99.90
41838;DHT22;27511;52.042;5.178;2023-05-24T01:08:21;13.20;99.90
41838;DHT22;27511;52.042;5.178;2023-05-24T01:10:55;13.20;99.90
41838;DHT22;27511;52.042;5.178;2023-05-24T01:13:26;13.20;99.90
41838;DHT22;27511;52.042;5.178;2023-05-24T01:18:53;13.10;99.90
41838;DHT22;27511;52.042;5.178;2023-05-24T01:24:07;13.00;99.90
41838;DHT22;27511;52.042;5.178;2023-05-24T01:26:44;13.00;99.90
41838;DHT22;27511;52.042;5.178;2023-05-24T01:29:13;12.90;99.90
41838;DHT22;27511;52.042;5.178;2023-05-24T01:31:38;13.00;99.90
41838;DHT22;27511;52.042;5.178;2023-05-24T01:34:05;13.00;99.90
41838;DHT22;27511;52.042;5.178;2023-05-24T01:36:30;13.00;99.90
41838;DHT22;27511;52.042;5.178;2023-05-24T01:38:56;12.90;99.90
41838;DHT22;27511;52.042;5.178;2023-05-24T01:41:42;13.00;99.90
41838;DHT22;27511;52.042;5.178;2023-05-24T01:44:21;12.90;99.90
41838;DHT22;27511;52.042;5.178;2023-05-24T01:46:52;12.90;99.90
41838;DHT22;27511;52.042;5.178;2023-05-24T01:49:25;12.90;99.90
41838;DHT22;27511;52.042;5.178;2023-05-24T01:51:58;12.90;99.90
41838;DHT22;27511;52.042;5.178;2023-05-24T01:54:24;12.90;99.90
41838;DHT22;27511;52.042;5.178;2023-05-24T01:56:53;12.90;99.90
41838;DHT22;27511;52.042;5.178;2023-05-24T01:59:21;12.90;99.90
41838;DHT22;27511;52.042;5.178;2023-05-24T02:01:47;13.00;99.90
41838;DHT22;27511;52.042;5.178;2023-05-24T02:04:12;13.00;99.90
41838;DHT22;27511;52.042;5.178;2023-05-24T02:06:38;13.00;99.90
41838;DHT22;27511;52.042;5.178;2023-05-24T02:09:03;12.90;99.90
41838;DHT22;27511;52.042;5.178;2023-05-24T02:11:29;13.00;99.90
41838;DHT22;27511;52.042;5.178;2023-05-24T02:13:54;12.90;99.90
41838;DHT22;27511;52.042;5.178;2023-05-24T02:16:20;12.80;99.90
41838;DHT22;27511;52.042;5.178;2023-05-24T02:18:48;12.90;99.90
41838;DHT22;27511;52.042;5.178;2023-05-24T02:21:14;12.90;99.90
41838;DHT22;27511;52.042;5.178;2023-05-24T02:23:40;13.00;99.90
41838;DHT22;27511;52.042;5.178;2023-05-24T02:26:05;13.10;99.90
41838;DHT22;27511;52.042;5.178;2023-05-24T02:28:31;13.00;99.90
41838;DHT22;27511;52.042;5.178;2023-05-24T02:30:57;13.10;99.90
41838;DHT22;27511;52.042;5.178;2023-05-24T02:33:22;13.00;99.90
41838;DHT22;27511;52.042;5.178;2023-05-24T02:35:50;12.90;99.90
41838;DHT22;27511;52.042;5.178;2023-05-24T02:38:16;12.90;99.90
41838;DHT22;27511;52.042;5.178;2023-05-24T02:40:41;12.90;99.90
41838;DHT22;27511;52.042;5.178;2023-05-24T02:43:07;12.80;99.90
41838;DHT22;27511;52.042;5.178;2023-05-24T02:45:33;12.80;99.90
41838;DHT22;27511;52.042;5.178;2023-05-24T02:48:00;12.80;99.90
41838;DHT22;27511;52.042;5.178;2023-05-24T02:50:26;12.70;99.90
41838;DHT22;27511;52.042;5.178;2023-05-24T02:52:51;12.70;99.90
41838;DHT22;27511;52.042;5.178;2023-05-24T02:55:17;12.70;99.90
41838;DHT22;27511;52.042;5.178;2023-05-24T02:57:42;12.60;99.90
41838;DHT22;27511;52.042;5.178;2023-05-24T03:00:08;12.70;99.90
41838;DHT22;27511;52.042;5.178;2023-05-24T03:02:35;12.70;99.90
41838;DHT22;27511;52.042;5.178;2023-05-24T03:05:02;12.70;99.90
41838;DHT22;27511;52.042;5.178;2023-05-24T03:07:28;12.60;99.90
41838;DHT22;27511;52.042;5.178;2023-05-24T03:09:53;12.60;99.90
41838;DHT22;27511;52.042;5.178;2023-05-24T03:12:19;12.50;99.90
41838;DHT22;27511;52.042;5.178;2023-05-24T03:14:44;12.40;99.90
41838;DHT22;27511;52.042;5.178;2023-05-24T03:17:10;12.40;99.90
41838;DHT22;27511;52.042;5.178;2023-05-24T03:19:35;12.40;99.90
41838;DHT22;27511;52.042;5.178;2023-05-24T03:22:01;12.50;99.90
41838;DHT22;27511;52.042;5.178;2023-05-24T03:24:27;12.50;99.90
41838;DHT22;27511;52.042;5.178;2023-05-24T03:26:53;12.50;99.90
41838;DHT22;27511;52.042;5.178;2023-05-24T03:29:18;12.40;99.90
41838;DHT22;27511;52.042;5.178;2023-05-24T03:31:43;12.30;99.90
41838;DHT22;27511;52.042;5.178;2023-05-24T03:34:09;12.20;99.90
41838;DHT22;27511;52.042;5.178;2023-05-24T03:36:34;12.10;99.90
41838;DHT22;27511;52.042;5.178;2023-05-24T03:39:00;12.20;99.90
41838;DHT22;27511;52.042;5.178;2023-05-24T03:41:28;12.30;99.90
41838;DHT22;27511;52.042;5.178;2023-05-24T03:43:54;12.30;99.90
41838;DHT22;27511;52.042;5.178;2023-05-24T03:46:19;12.30;99.90
41838;DHT22;27511;52.042;5.178;2023-05-24T03:48:45;12.40;99.90
41838;DHT22;27511;52.042;5.178;2023-05-24T03:51:10;12.30;99.90
41838;DHT22;27511;52.042;5.178;2023-05-24T03:53:36;12.20;99.90
41838;DHT22;27511;52.042;5.178;2023-05-24T03:56:02;12.20;99.90
41838;DHT22;27511;52.042;5.178;2023-05-24T03:58:27;12.30;99.90
41838;DHT22;27511;52.042;5.178;2023-05-24T04:00:53;12.20;99.90
41838;DHT22;27511;52.042;5.178;2023-05-24T04:03:18;12.20;99.90
41838;DHT22;27511;52.042;5.178;2023-05-24T04:05:44;12.20;99.90
41838;DHT22;27511;52.042;5.178;2023-05-24T04:08:10;12.30;99.90
41838;DHT22;27511;52.042;5.178;2023-05-24T04:10:36;12.20;99.90
41838;DHT22;27511;52.042;5.178;2023-05-24T04:13:02;12.20;99.90
41838;DHT22;27511;52.042;5.178;2023-05-24T04:15:27;12.30;99.90
41838;DHT22;27511;52.042;5.178;2023-05-24T04:17:53;12.20;99.90
41838;DHT22;27511;52.042;5.178;2023-05-24T04:20:20;12.20;99.90
41838;DHT22;27511;52.042;5.178;2023-05-24T04:22:48;12.20;99.90
41838;DHT22;27511;52.042;5.178;2023-05-24T04:25:13;12.20;99.90
41838;DHT22;27511;52.042;5.178;2023-05-24T04:27:39;12.10;99.90
41838;DHT22;27511;52.042;5.178;2023-05-24T04:30:05;12.20;99.90
41838;DHT22;27511;52.042;5.178;2023-05-24T04:32:30;12.30;99.90
41838;DHT22;27511;52.042;5.178;2023-05-24T04:34:56;12.30;99.90
41838;DHT22;27511;52.042;5.178;2023-05-24T04:37:22;12.20;99.90
41838;DHT22;27511;52.042;5.178;2023-05-24T04:39:48;12.10;99.90
41838;DHT22;27511;52.042;5.178;2023-05-24T04:42:14;12.20;99.90
41838;DHT22;27511;52.042;5.178;2023-05-24T04:44:39;12.10;99.90
41838;DHT22;27511;52.042;5.178;2023-05-24T04:47:05;12.20;99.90
41838;DHT22;27511;52.042;5.178;2023-05-24T04:49:31;12.30;99.90
41838;DHT22;27511;52.042;5.178;2023-05-24T04:51:56;12.40;99.90
41838;DHT22;27511;52.042;5.178;2023-05-24T04:54:22;12.40;99.90
41838;DHT22;27511;52.042;5.178;2023-05-24T04:56:47;12.60;99.90
41838;DHT22;27511;52.042;5.178;2023-05-24T04:59:13;12.70;99.90
41838;DHT22;27511;52.042;5.178;2023-05-24T05:01:38;12.70;99.90
41838;DHT22;27511;52.042;5.178;2023-05-24T05:04:04;12.80;99.90
41838;DHT22;27511;52.042;5.178;2023-05-24T05:06:29;12.90;99.90
41838;DHT22;27511;52.042;5.178;2023-05-24T05:08:56;13.00;99.90
41838;DHT22;27511;52.042;5.178;2023-05-24T05:11:21;13.10;99.90
41838;DHT22;27511;52.042;5.178;2023-05-24T05:13:47;13.30;99.90
41838;DHT22;27511;52.042;5.178;2023-05-24T05:16:12;13.30;99.90
41838;DHT22;27511;52.042;5.178;2023-05-24T05:18:38;13.40;99.90
41838;DHT22;27511;52.042;5.178;2023-05-24T05:21:03;13.60;99.90
41838;DHT22;27511;52.042;5.178;2023-05-24T05:23:29;13.70;99.90
41838;DHT22;27511;52.042;5.178;2023-05-24T05:25:54;13.70;99.90
41838;DHT22;27511;52.042;5.178;2023-05-24T05:28:20;13.80;99.90
41838;DHT22;27511;52.042;5.178;2023-05-24T05:30:45;13.90;99.90
41838;DHT22;27511;52.042;5.178;2023-05-24T05:33:11;13.90;99.90
41838;DHT22;27511;52.042;5.178;2023-05-24T05:35:37;14.00;99.90
41838;DHT22;27511;52.042;5.178;2023-05-24T05:38:02;14.10;99.90
41838;DHT22;27511;52.042;5.178;2023-05-24T05:40:27;14.10;99.90
41838;DHT22;27511;52.042;5.178;2023-05-24T05:42:53;14.20;99.90
41838;DHT22;27511;52.042;5.178;2023-05-24T05:45:18;14.20;99.90
41838;DHT22;27511;52.042;5.178;2023-05-24T05:47:44;14.20;99.90
41838;DHT22;27511;52.042;5.178;2023-05-24T05:50:09;14.20;99.90
41838;DHT22;27511;52.042;5.178;2023-05-24T05:52:35;14.20;99.90
41838;DHT22;27511;52.042;5.178;2023-05-24T05:55:01;14.20;99.90
41838;DHT22;27511;52.042;5.178;2023-05-24T05:57:26;14.30;99.90
41838;DHT22;27511;52.042;5.178;2023-05-24T05:59:52;14.10;99.90
41838;DHT22;27511;52.042;5.178;2023-05-24T06:02:17;14.00;99.90
41838;DHT22;27511;52.042;5.178;2023-05-24T06:04:44;14.10;99.90
41838;DHT22;27511;52.042;5.178;2023-05-24T06:07:09;14.10;99.90
41838;DHT22;27511;52.042;5.178;2023-05-24T06:09:35;14.30;99.90
41838;DHT22;27511;52.042;5.178;2023-05-24T06:12:00;14.40;99.90
41838;DHT22;27511;52.042;5.178;2023-05-24T06:14:26;14.40;99.90
41838;DHT22;27511;52.042;5.178;2023-05-24T06:16:51;14.40;99.90
41838;DHT22;27511;52.042;5.178;2023-05-24T06:19:18;14.50;99.90
41838;DHT22;27511;52.042;5.178;2023-05-24T06:21:46;14.60;99.90
41838;DHT22;27511;52.042;5.178;2023-05-24T06:24:12;14.50;99.90
41838;DHT22;27511;52.042;5.178;2023-05-24T06:26:39;14.60;99.90
41838;DHT22;27511;52.042;5.178;2023-05-24T06:29:04;14.50;99.90
41838;DHT22;27511;52.042;5.178;2023-05-24T06:31:30;14.40;99.90
41838;DHT22;27511;52.042;5.178;2023-05-24T06:33:55;14.40;99.90
41838;DHT22;27511;52.042;5.178;2023-05-24T06:36:21;14.40;99.90
41838;DHT22;27511;52.042;5.178;2023-05-24T06:38:46;14.60;99.90
41838;DHT22;27511;52.042;5.178;2023-05-24T06:41:12;14.70;99.90
41838;DHT22;27511;52.042;5.178;2023-05-24T06:43:37;14.70;99.90
41838;DHT22;27511;52.042;5.178;2023-05-24T06:46:05;14.70;99.90
41838;DHT22;27511;52.042;5.178;2023-05-24T06:48:30;14.80;99.90
41838;DHT22;27511;52.042;5.178;2023-05-24T06:50:57;14.80;99.90
41838;DHT22;27511;52.042;5.178;2023-05-24T06:53:22;14.80;99.90
41838;DHT22;27511;52.042;5.178;2023-05-24T06:55:48;14.90;99.90
41838;DHT22;27511;52.042;5.178;2023-05-24T06:58:13;15.00;99.90
41838;DHT22;27511;52.042;5.178;2023-05-24T07:00:41;14.90;99.90
41838;DHT22;27511;52.042;5.178;2023-05-24T07:03:07;14.90;99.90
41838;DHT22;27511;52.042;5.178;2023-05-24T07:05:33;15.00;99.90
41838;DHT22;27511;52.042;5.178;2023-05-24T07:07:59;15.00;99.90
41838;DHT22;27511;52.042;5.178;2023-05-24T07:10:24;15.10;99.90
41838;DHT22;27511;52.042;5.178;2023-05-24T07:12:50;15.10;99.90
41838;DHT22;27511;52.042;5.178;2023-05-24T07:15:15;15.20;99.90
41838;DHT22;27511;52.042;5.178;2023-05-24T07:17:41;15.10;99.90
41838;DHT22;27511;52.042;5.178;2023-05-24T07:20:06;15.30;99.90
41838;DHT22;27511;52.042;5.178;2023-05-24T07:22:34;15.20;99.90
41838;DHT22;27511;52.042;5.178;2023-05-24T07:25:00;15.40;99.90
41838;DHT22;27511;52.042;5.178;2023-05-24T07:27:26;15.20;99.90
41838;DHT22;27511;52.042;5.178;2023-05-24T07:29:51;15.30;99.90
41838;DHT22;27511;52.042;5.178;2023-05-24T07:32:17;15.40;99.90
41838;DHT22;27511;52.042;5.178;2023-05-24T07:34:42;15.50;99.90
41838;DHT22;27511;52.042;5.178;2023-05-24T07:37:08;15.60;99.90
41838;DHT22;27511;52.042;5.178;2023-05-24T07:39:33;15.60;99.90
41838;DHT22;27511;52.042;5.178;2023-05-24T07:41:59;15.70;99.90
41838;DHT22;27511;52.042;5.178;2023-05-24T07:44:24;15.70;99.90
41838;DHT22;27511;52.042;5.178;2023-05-24T07:46:50;15.70;99.90
41838;DHT22;27511;52.042;5.178;2023-05-24T07:49:15;15.50;99.90
41838;DHT22;27511;52.042;5.178;2023-05-24T07:51:41;15.50;99.90
41838;DHT22;27511;52.042;5.178;2023-05-24T07:54:07;15.60;99.90
41838;DHT22;27511;52.042;5.178;2023-05-24T07:56:32;15.60;99.90
41838;DHT22;27511;52.042;5.178;2023-05-24T07:58:58;15.70;99.90
41838;DHT22;27511;52.042;5.178;2023-05-24T08:01:30;15.80;99.90
41838;DHT22;27511;52.042;5.178;2023-05-24T08:03:56;15.80;99.90
41838;DHT22;27511;52.042;5.178;2023-05-24T08:06:22;15.80;99.90
41838;DHT22;27511;52.042;5.178;2023-05-24T08:08:48;15.90;99.90
41838;DHT22;27511;52.042;5.178;2023-05-24T08:11:14;16.10;99.90
41838;DHT22;27511;52.042;5.178;2023-05-24T08:13:39;16.20;99.90
41838;DHT22;27511;52.042;5.178;2023-05-24T08:16:05;16.00;99.90
41838;DHT22;27511;52.042;5.178;2023-05-24T08:18:30;15.90;99.90
41838;DHT22;27511;52.042;5.178;2023-05-24T08:20:56;15.90;99.90
41838;DHT22;27511;52.042;5.178;2023-05-24T08:23:21;15.90;99.90
41838;DHT22;27511;52.042;5.178;2023-05-24T08:25:47;15.90;99.90
41838;DHT22;27511;52.042;5.178;2023-05-24T08:28:12;16.00;99.90
41838;DHT22;27511;52.042;5.178;2023-05-24T08:30:38;16.00;99.90
41838;DHT22;27511;52.042;5.178;2023-05-24T08:33:09;15.90;99.90
41838;DHT22;27511;52.042;5.178;2023-05-24T08:35:35;16.00;99.90
41838;DHT22;27511;52.042;5.178;2023-05-24T08:38:01;16.10;99.90
41838;DHT22;27511;52.042;5.178;2023-05-24T08:40:26;16.10;99.90
41838;DHT22;27511;52.042;5.178;2023-05-24T08:42:52;15.90;99.90
41838;DHT22;27511;52.042;5.178;2023-05-24T08:45:18;16.10;99.90
41838;DHT22;27511;52.042;5.178;2023-05-24T08:47:45;16.10;99.90
41838;DHT22;27511;52.042;5.178;2023-05-24T08:50:11;16.20;99.90
41838;DHT22;27511;52.042;5.178;2023-05-24T08:52:37;16.30;99.90
41838;DHT22;27511;52.042;5.178;2023-05-24T08:55:04;16.40;99.90
41838;DHT22;27511;52.042;5.178;2023-05-24T08:57:30;16.40;99.90
41838;DHT22;27511;52.042;5.178;2023-05-24T08:59:56;16.40;99.90
41838;DHT22;27511;52.042;5.178;2023-05-24T09:02:22;16.50;99.90
41838;DHT22;27511;52.042;5.178;2023-05-24T09:04:48;16.50;99.90
41838;DHT22;27511;52.042;5.178;2023-05-24T09:07:15;16.20;99.90
41838;DHT22;27511;52.042;5.178;2023-05-24T09:09:42;16.40;99.90
41838;DHT22;27511;52.042;5.178;2023-05-24T09:12:09;16.50;99.90
41838;DHT22;27511;52.042;5.178;2023-05-24T09:14:35;16.60;99.90
41838;DHT22;27511;52.042;5.178;2023-05-24T09:17:01;16.70;99.90
41838;DHT22;27511;52.042;5.178;2023-05-24T09:19:27;16.70;99.90
41838;DHT22;27511;52.042;5.178;2023-05-24T09:21:53;16.60;99.90
41838;DHT22;27511;52.042;5.178;2023-05-24T09:24:21;16.80;99.90
41838;DHT22;27511;52.042;5.178;2023-05-24T09:26:48;16.80;99.90
41838;DHT22;27511;52.042;5.178;2023-05-24T09:29:13;16.80;99.90
41838;DHT22;27511;52.042;5.178;2023-05-24T09:31:39;16.90;99.90
41838;DHT22;27511;52.042;5.178;2023-05-24T09:34:08;16.90;99.90
41838;DHT22;27511;52.042;5.178;2023-05-24T09:36:34;16.90;99.90
41838;DHT22;27511;52.042;5.178;2023-05-24T09:39:04;17.00;99.90
41838;DHT22;27511;52.042;5.178;2023-05-24T09:41:31;17.10;99.90
41838;DHT22;27511;52.042;5.178;2023-05-24T09:43:57;17.20;99.90
41838;DHT22;27511;52.042;5.178;2023-05-24T09:46:22;17.30;99.90
41838;DHT22;27511;52.042;5.178;2023-05-24T09:48:57;17.40;99.90
41838;DHT22;27511;52.042;5.178;2023-05-24T09:51:23;17.50;99.90
41838;DHT22;27511;52.042;5.178;2023-05-24T09:53:48;17.40;99.90
41838;DHT22;27511;52.042;5.178;2023-05-24T09:56:16;17.40;99.90
41838;DHT22;27511;52.042;5.178;2023-05-24T09:58:42;17.20;99.90
41838;DHT22;27511;52.042;5.178;2023-05-24T10:01:09;17.30;99.90
41838;DHT22;27511;52.042;5.178;2023-05-24T10:03:52;17.40;99.90
41838;DHT22;27511;52.042;5.178;2023-05-24T10:06:18;17.30;99.90
41838;DHT22;27511;52.042;5.178;2023-05-24T10:08:44;17.20;99.90
41838;DHT22;27511;52.042;5.178;2023-05-24T10:11:12;17.10;99.90
41838;DHT22;27511;52.042;5.178;2023-05-24T10:13:38;17.30;99.90
41838;DHT22;27511;52.042;5.178;2023-05-24T10:16:03;17.40;99.90
41838;DHT22;27511;52.042;5.178;2023-05-24T10:18:29;17.30;99.90
41838;DHT22;27511;52.042;5.178;2023-05-24T10:20:54;17.40;99.90
41838;DHT22;27511;52.042;5.178;2023-05-24T10:23:22;17.60;99.90
41838;DHT22;27511;52.042;5.178;2023-05-24T10:25:49;17.60;99.90
41838;DHT22;27511;52.042;5.178;2023-05-24T10:28:16;17.80;99.90
41838;DHT22;27511;52.042;5.178;2023-05-24T10:33:07;18.10;99.90
41838;DHT22;27511;52.042;5.178;2023-05-24T10:35:36;18.30;99.90
41838;DHT22;27511;52.042;5.178;2023-05-24T10:38:06;18.50;99.90
41838;DHT22;27511;52.042;5.178;2023-05-24T10:40:32;18.40;99.90
41838;DHT22;27511;52.042;5.178;2023-05-24T10:42:58;18.50;99.90
41838;DHT22;27511;52.042;5.178;2023-05-24T10:47:49;18.60;99.90
41838;DHT22;27511;52.042;5.178;2023-05-24T10:50:15;18.70;99.90
41838;DHT22;27511;52.042;5.178;2023-05-24T10:52:41;18.50;99.90
41838;DHT22;27511;52.042;5.178;2023-05-24T10:55:08;18.50;99.90
41838;DHT22;27511;52.042;5.178;2023-05-24T10:57:37;18.60;99.90
41838;DHT22;27511;52.042;5.178;2023-05-24T11:00:48;18.60;99.90
41838;DHT22;27511;52.042;5.178;2023-05-24T11:02:58;18.70;99.90
41838;DHT22;27511;52.042;5.178;2023-05-24T11:05:31;18.70;99.90
41838;DHT22;27511;52.042;5.178;2023-05-24T11:07:59;18.70;99.90
41838;DHT22;27511;52.042;5.178;2023-05-24T11:10:28;18.60;99.90
41838;DHT22;27511;52.042;5.178;2023-05-24T11:13:00;18.60;99.90
41838;DHT22;27511;52.042;5.178;2023-05-24T11:15:26;18.60;99.90
41838;DHT22;27511;52.042;5.178;2023-05-24T11:20:37;18.80;99.90
41838;DHT22;27511;52.042;5.178;2023-05-24T11:23:03;18.60;99.90
41838;DHT22;27511;52.042;5.178;2023-05-24T11:25:28;18.70;99.90
41838;DHT22;27511;52.042;5.178;2023-05-24T11:27:55;18.70;99.90
41838;DHT22;27511;52.042;5.178;2023-05-24T11:30:22;18.90;99.90
41838;DHT22;27511;52.042;5.178;2023-05-24T11:32:48;18.90;99.90
41838;DHT22;27511;52.042;5.178;2023-05-24T11:35:13;19.00;99.90
41838;DHT22;27511;52.042;5.178;2023-05-24T11:37:40;18.90;99.90
41838;DHT22;27511;52.042;5.178;2023-05-24T11:40:07;18.90;99.90
41838;DHT22;27511;52.042;5.178;2023-05-24T11:42:34;18.90;99.90
41838;DHT22;27511;52.042;5.178;2023-05-24T11:45:04;19.00;99.90
41838;DHT22;27511;52.042;5.178;2023-05-24T11:47:34;19.10;99.90
41838;DHT22;27511;52.042;5.178;2023-05-24T11:49:59;19.10;99.90
41838;DHT22;27511;52.042;5.178;2023-05-24T11:52:25;19.00;99.90
41838;DHT22;27511;52.042;5.178;2023-05-24T11:54:51;19.20;99.90
41838;DHT22;27511;52.042;5.178;2023-05-24T11:57:17;19.20;99.90
41838;DHT22;27511;52.042;5.178;2023-05-24T11:59:43;19.20;99.90
41838;DHT22;27511;52.042;5.178;2023-05-24T12:02:09;19.20;99.90
41838;DHT22;27511;52.042;5.178;2023-05-24T12:04:34;19.40;99.90
41838;DHT22;27511;52.042;5.178;2023-05-24T12:07:00;19.40;99.90
41838;DHT22;27511;52.042;5.178;2023-05-24T12:09:26;19.50;99.90
41838;DHT22;27511;52.042;5.178;2023-05-24T12:11:52;19.40;99.90
41838;DHT22;27511;52.042;5.178;2023-05-24T12:14:26;19.50;99.90
41838;DHT22;27511;52.042;5.178;2023-05-24T12:16:52;19.40;99.90
41838;DHT22;27511;52.042;5.178;2023-05-24T12:19:20;19.50;99.90
41838;DHT22;27511;52.042;5.178;2023-05-24T12:21:47;19.50;99.90
41838;DHT22;27511;52.042;5.178;2023-05-24T12:24:14;19.50;99.90
41838;DHT22;27511;52.042;5.178;2023-05-24T12:26:40;19.70;99.90
41838;DHT22;27511;52.042;5.178;2023-05-24T12:29:08;19.60;99.90
41838;DHT22;27511;52.042;5.178;2023-05-24T12:31:34;19.50;99.90
41838;DHT22;27511;52.042;5.178;2023-05-24T12:33:59;19.50;99.90
41838;DHT22;27511;52.042;5.178;2023-05-24T12:36:26;19.50;99.90
41838;DHT22;27511;52.042;5.178;2023-05-24T12:38:52;19.40;99.90
41838;DHT22;27511;52.042;5.178;2023-05-24T12:41:17;19.60;99.90
41838;DHT22;27511;52.042;5.178;2023-05-24T12:43:44;19.70;99.90
41838;DHT22;27511;52.042;5.178;2023-05-24T12:46:09;19.70;99.90
41838;DHT22;27511;52.042;5.178;2023-05-24T12:48:35;19.60;99.90
41838;DHT22;27511;52.042;5.178;2023-05-24T12:51:01;19.60;99.90
41838;DHT22;27511;52.042;5.178;2023-05-24T12:53:27;19.70;99.90
41838;DHT22;27511;52.042;5.178;2023-05-24T12:55:52;19.70;99.90
41838;DHT22;27511;52.042;5.178;2023-05-24T12:58:20;19.70;99.90
41838;DHT22;27511;52.042;5.178;2023-05-24T13:00:46;19.70;99.90
41838;DHT22;27511;52.042;5.178;2023-05-24T13:03:14;19.50;99.90
41838;DHT22;27511;52.042;5.178;2023-05-24T13:05:39;19.80;99.90
41838;DHT22;27511;52.042;5.178;2023-05-24T13:08:05;19.80;99.90
41838;DHT22;27511;52.042;5.178;2023-05-24T13:10:31;19.70;99.90
41838;DHT22;27511;52.042;5.178;2023-05-24T13:12:57;19.70;99.90
41838;DHT22;27511;52.042;5.178;2023-05-24T13:15:22;19.70;99.90
41838;DHT22;27511;52.042;5.178;2023-05-24T13:17:48;19.60;99.90
41838;DHT22;27511;52.042;5.178;2023-05-24T13:20:14;19.70;99.90
41838;DHT22;27511;52.042;5.178;2023-05-24T13:22:40;19.40;99.90
41838;DHT22;27511;52.042;5.178;2023-05-24T13:25:07;19.50;99.90
41838;DHT22;27511;52.042;5.178;2023-05-24T13:27:33;19.50;99.90
41838;DHT22;27511;52.042;5.178;2023-05-24T13:29:58;19.70;99.90
41838;DHT22;27511;52.042;5.178;2023-05-24T13:32:24;19.70;99.90
41838;DHT22;27511;52.042;5.178;2023-05-24T13:34:49;19.70;99.90
41838;DHT22;27511;52.042;5.178;2023-05-24T13:37:15;19.90;99.90
41838;DHT22;27511;52.042;5.178;2023-05-24T13:39:41;19.80;99.90
41838;DHT22;27511;52.042;5.178;2023-05-24T13:42:06;19.70;99.90
41838;DHT22;27511;52.042;5.178;2023-05-24T13:44:33;19.70;99.90
41838;DHT22;27511;52.042;5.178;2023-05-24T13:46:58;19.60;99.90
41838;DHT22;27511;52.042;5.178;2023-05-24T13:49:24;19.90;99.90
41838;DHT22;27511;52.042;5.178;2023-05-24T13:51:50;19.90;99.90
41838;DHT22;27511;52.042;5.178;2023-05-24T13:54:16;20.00;99.90
41838;DHT22;27511;52.042;5.178;2023-05-24T13:56:42;20.10;99.90
41838;DHT22;27511;52.042;5.178;2023-05-24T13:59:09;20.30;99.90
41838;DHT22;27511;52.042;5.178;2023-05-24T14:01:35;20.00;99.90
41838;DHT22;27511;52.042;5.178;2023-05-24T14:04:02;19.90;99.90
41838;DHT22;27511;52.042;5.178;2023-05-24T14:06:28;19.80;99.90
41838;DHT22;27511;52.042;5.178;2023-05-24T14:08:53;19.90;99.90
41838;DHT22;27511;52.042;5.178;2023-05-24T14:11:19;20.00;99.90
41838;DHT22;27511;52.042;5.178;2023-05-24T14:13:44;20.10;99.90
41838;DHT22;27511;52.042;5.178;2023-05-24T14:16:10;20.10;99.90
41838;DHT22;27511;52.042;5.178;2023-05-24T14:18:35;19.90;99.90
41838;DHT22;27511;52.042;5.178;2023-05-24T14:21:02;19.90;99.90
41838;DHT22;27511;52.042;5.178;2023-05-24T14:23:27;19.90;99.90
41838;DHT22;27511;52.042;5.178;2023-05-24T14:25:57;19.90;99.90
41838;DHT22;27511;52.042;5.178;2023-05-24T14:28:22;20.10;99.90
41838;DHT22;27511;52.042;5.178;2023-05-24T14:30:48;20.20;99.90
41838;DHT22;27511;52.042;5.178;2023-05-24T14:33:14;20.30;99.90
41838;DHT22;27511;52.042;5.178;2023-05-24T14:35:39;20.40;99.90
41838;DHT22;27511;52.042;5.178;2023-05-24T14:38:05;20.40;99.90
41838;DHT22;27511;52.042;5.178;2023-05-24T14:40:32;20.40;99.90
41838;DHT22;27511;52.042;5.178;2023-05-24T14:42:58;20.30;99.90
41838;DHT22;27511;52.042;5.178;2023-05-24T14:45:24;20.40;99.90
41838;DHT22;27511;52.042;5.178;2023-05-24T14:47:50;20.40;99.90
41838;DHT22;27511;52.042;5.178;2023-05-24T14:50:18;20.40;99.90
41838;DHT22;27511;52.042;5.178;2023-05-24T14:52:43;20.50;99.90
41838;DHT22;27511;52.042;5.178;2023-05-24T14:55:09;20.40;99.90
41838;DHT22;27511;52.042;5.178;2023-05-24T14:57:35;20.40;99.90
41838;DHT22;27511;52.042;5.178;2023-05-24T15:00:01;20.40;99.90
41838;DHT22;27511;52.042;5.178;2023-05-24T15:02:28;20.40;99.90
41838;DHT22;27511;52.042;5.178;2023-05-24T15:04:53;20.50;99.90
41838;DHT22;27511;52.042;5.178;2023-05-24T15:07:22;20.40;99.90
41838;DHT22;27511;52.042;5.178;2023-05-24T15:09:47;20.40;99.90
41838;DHT22;27511;52.042;5.178;2023-05-24T15:12:13;20.40;99.90
41838;DHT22;27511;52.042;5.178;2023-05-24T15:14:38;20.50;99.90
41838;DHT22;27511;52.042;5.178;2023-05-24T15:17:04;20.50;99.90
41838;DHT22;27511;52.042;5.178;2023-05-24T15:19:29;20.60;99.90
41838;DHT22;27511;52.042;5.178;2023-05-24T15:21:55;20.80;99.90
41838;DHT22;27511;52.042;5.178;2023-05-24T15:24:21;21.00;99.90
41838;DHT22;27511;52.042;5.178;2023-05-24T15:26:46;21.80;99.90
41838;DHT22;27511;52.042;5.178;2023-05-24T15:29:12;23.10;99.90
41838;DHT22;27511;52.042;5.178;2023-05-24T15:31:38;23.50;99.90
41838;DHT22;27511;52.042;5.178;2023-05-24T15:34:03;23.30;99.90
41838;DHT22;27511;52.042;5.178;2023-05-24T15:36:29;23.10;99.90
41838;DHT22;27511;52.042;5.178;2023-05-24T15:38:55;22.90;99.90
41838;DHT22;27511;52.042;5.178;2023-05-24T15:41:21;22.70;99.90